createdAt,value
2023-05-08T00:00:14.879Z,1.70
2023-05-08T00:02:43.804Z,1.60
2023-05-08T00:05:12.511Z,1.60
2023-05-08T00:07:41.088Z,1.60
2023-05-08T00:10:12.731Z,1.50
2023-05-08T00:12:41.471Z,1.50
2023-05-08T00:15:11.349Z,1.50
2023-05-08T00:17:58.993Z,1.40
2023-05-08T00:20:27.546Z,1.40
2023-05-08T00:22:57.991Z,1.30
2023-05-08T00:25:28.984Z,1.30
2023-05-08T00:27:57.527Z,1.30
2023-05-08T00:30:26.262Z,1.20
2023-05-08T00:32:54.903Z,1.20
2023-05-08T00:35:23.844Z,1.20
2023-05-08T00:37:52.455Z,1.20
2023-05-08T00:40:21.121Z,1.20
2023-05-08T00:42:51.253Z,1.20
2023-05-08T00:45:20.557Z,1.20
2023-05-08T00:47:49.236Z,1.10
2023-05-08T00:50:18.044Z,1.10
2023-05-08T00:52:47.588Z,1.10
2023-05-08T00:55:16.570Z,1.00
2023-05-08T00:57:49.092Z,1.00
2023-05-08T01:00:21.789Z,1.00
2023-05-08T01:02:50.885Z,1.00
2023-05-08T01:05:19.699Z,0.90
2023-05-08T01:07:48.627Z,0.90
2023-05-08T01:10:17.747Z,1.00
2023-05-08T01:12:54.500Z,0.80
2023-05-08T01:15:30.954Z,0.80
2023-05-08T01:18:09.764Z,0.90
2023-05-08T01:20:47.050Z,0.90
2023-05-08T01:23:57.348Z,0.80
2023-05-08T01:27:06.842Z,0.80
2023-05-08T01:30:13.007Z,0.80
2023-05-08T01:32:45.245Z,0.70
2023-05-08T01:35:22.952Z,0.60
2023-05-08T01:37:58.756Z,0.60
2023-05-08T01:40:36.557Z,0.50
2023-05-08T01:43:14.729Z,0.50
2023-05-08T01:45:48.308Z,0.50
2023-05-08T01:48:24.101Z,0.40
2023-05-08T01:50:57.953Z,0.40
2023-05-08T01:53:30.252Z,0.50
2023-05-08T01:56:02.149Z,0.50
2023-05-08T01:58:32.093Z,0.50
2023-05-08T02:01:03.492Z,0.50
2023-05-08T02:03:35.340Z,0.40
2023-05-08T02:06:04.880Z,0.40
2023-05-08T02:08:34.764Z,0.40
2023-05-08T02:11:05.286Z,0.40
2023-05-08T02:13:35.151Z,0.20
2023-05-08T02:16:04.763Z,0.30
2023-05-08T02:18:35.870Z,0.30
2023-05-08T02:21:06.848Z,0.20
2023-05-08T02:23:36.930Z,0.20
2023-05-08T02:26:06.445Z,0.20
2023-05-08T02:28:36.114Z,0.20
2023-05-08T02:31:06.274Z,0.20
2023-05-08T02:33:36.681Z,0.10
2023-05-08T02:36:06.056Z,0.10
2023-05-08T02:38:36.555Z,0.10
2023-05-08T02:41:07.504Z,0.10
2023-05-08T02:43:36.464Z,0.10
2023-05-08T02:46:14.105Z,0.10
2023-05-08T02:48:57.235Z,0.10
2023-05-08T02:51:31.624Z,0.10
2023-05-08T02:54:06.264Z,0.10
2023-05-08T02:56:39.610Z,0.10
2023-05-08T02:59:18.125Z,0.10
2023-05-08T03:01:52.109Z,0.10
2023-05-08T03:04:28.225Z,0.10
2023-05-08T03:06:59.187Z,0.10
2023-05-08T03:09:35.287Z,0.10
2023-05-08T03:12:10.850Z,0.20
2023-05-08T03:14:44.614Z,0.20
2023-05-08T03:17:16.794Z,0.20
2023-05-08T03:19:52.198Z,0.20
2023-05-08T03:22:21.773Z,0.30
2023-05-08T03:24:51.695Z,0.30
2023-05-08T03:27:21.710Z,0.40
2023-05-08T03:29:52.548Z,0.40
2023-05-08T03:32:23.490Z,0.50
2023-05-08T03:34:54.485Z,0.50
2023-05-08T03:37:23.374Z,0.50
2023-05-08T03:39:53.031Z,0.60
2023-05-08T03:42:22.542Z,0.70
2023-05-08T03:44:52.651Z,0.80
2023-05-08T03:47:22.360Z,0.80
2023-05-08T03:49:54.536Z,1.00
2023-05-08T03:52:23.117Z,1.30
2023-05-08T03:54:51.676Z,1.50
2023-05-08T03:57:20.271Z,1.70
2023-05-08T03:59:53.377Z,2.10
2023-05-08T04:02:30.329Z,3.00
2023-05-08T04:05:11.860Z,4.70
2023-05-08T04:07:45.752Z,6.60
2023-05-08T04:10:23.115Z,8.30
2023-05-08T04:12:59.175Z,9.60
2023-05-08T04:15:31.526Z,10.70
2023-05-08T04:18:04.248Z,11.50
2023-05-08T04:20:35.362Z,12.30
2023-05-08T04:23:05.535Z,12.80
2023-05-08T04:25:37.626Z,13.20
2023-05-08T04:28:09.769Z,13.40
2023-05-08T04:30:38.691Z,13.10
2023-05-08T04:33:07.589Z,12.60
2023-05-08T04:35:37.850Z,11.60
2023-05-08T04:38:06.707Z,10.40
2023-05-08T04:40:35.255Z,9.30
2023-05-08T04:43:03.812Z,8.30
2023-05-08T04:45:32.413Z,7.50
2023-05-08T04:48:01.101Z,6.90
2023-05-08T04:50:29.798Z,6.50
2023-05-08T04:52:59.749Z,6.20
2023-05-08T04:55:28.496Z,6.00
2023-05-08T04:57:57.199Z,5.80
2023-05-08T05:00:25.700Z,5.70
2023-05-08T05:02:54.406Z,5.70
2023-05-08T05:05:23.386Z,5.70
2023-05-08T05:07:52.005Z,5.70
2023-05-08T05:10:22.184Z,5.70
2023-05-08T05:12:50.715Z,5.80
2023-05-08T05:15:19.428Z,5.90
2023-05-08T05:17:48.649Z,6.00
2023-05-08T05:20:17.601Z,6.10
2023-05-08T05:22:46.282Z,6.20
2023-05-08T05:25:15.306Z,6.20
2023-05-08T05:27:45.923Z,6.30
2023-05-08T05:30:15.376Z,6.40
2023-05-08T05:32:44.134Z,6.50
2023-05-08T05:35:12.944Z,6.60
2023-05-08T05:37:41.654Z,6.70
2023-05-08T05:40:13.472Z,6.80
2023-05-08T05:42:42.100Z,6.90
2023-05-08T05:45:12.654Z,6.90
2023-05-08T05:47:46.965Z,7.00
2023-05-08T05:50:15.583Z,7.00
2023-05-08T05:52:44.502Z,7.10
2023-05-08T05:55:13.826Z,7.20
2023-05-08T05:57:42.808Z,7.20
2023-05-08T06:00:13.798Z,7.40
2023-05-08T06:02:43.137Z,7.50
2023-05-08T06:05:12.493Z,7.60
2023-05-08T06:07:41.424Z,7.80
2023-05-08T06:10:10.885Z,7.90
2023-05-08T06:12:39.486Z,8.00
2023-05-08T06:15:10.134Z,8.10
2023-05-08T06:17:40.413Z,8.20
2023-05-08T06:20:10.594Z,8.30
2023-05-08T06:22:40.419Z,8.40
2023-05-08T06:25:10.248Z,8.40
2023-05-08T06:27:38.995Z,8.50
2023-05-08T06:30:10.976Z,8.50
2023-05-08T06:32:41.051Z,8.50
2023-05-08T06:35:10.811Z,8.50
2023-05-08T06:37:39.549Z,8.60
2023-05-08T06:40:12.285Z,8.60
2023-05-08T06:42:41.803Z,8.60
2023-05-08T06:45:11.236Z,8.80
2023-05-08T06:47:41.952Z,8.90
2023-05-08T06:50:11.537Z,9.10
2023-05-08T06:52:40.125Z,9.20
2023-05-08T06:55:09.442Z,9.20
2023-05-08T06:57:38.278Z,9.20
2023-05-08T07:00:08.088Z,9.20
2023-05-08T07:02:36.857Z,9.20
2023-05-08T07:05:08.105Z,9.30
2023-05-08T07:07:42.908Z,9.40
2023-05-08T07:10:12.460Z,9.40
2023-05-08T07:12:41.293Z,9.50
2023-05-08T07:15:24.873Z,9.60
2023-05-08T07:17:54.894Z,9.70
2023-05-08T07:20:25.637Z,9.70
2023-05-08T07:22:54.407Z,9.70
2023-05-08T07:25:23.305Z,9.80
2023-05-08T07:27:51.891Z,9.80
2023-05-08T07:30:20.589Z,9.90
2023-05-08T07:32:49.321Z,10.00
2023-05-08T07:35:18.488Z,10.10
2023-05-08T07:37:48.742Z,10.20
2023-05-08T07:40:17.400Z,10.40
2023-05-08T07:42:46.680Z,10.50
2023-05-08T07:45:15.834Z,10.60
2023-05-08T07:47:52.063Z,10.80
2023-05-08T07:50:20.983Z,10.90
2023-05-08T07:52:51.651Z,10.80
2023-05-08T07:55:21.745Z,10.80
2023-05-08T07:57:50.311Z,10.90
2023-05-08T08:00:19.617Z,11.00
2023-05-08T08:02:48.414Z,11.00
2023-05-08T08:05:17.343Z,11.10
2023-05-08T08:07:46.064Z,11.20
2023-05-08T08:10:16.171Z,11.20
2023-05-08T08:12:45.303Z,11.30
2023-05-08T08:15:14.179Z,11.30
2023-05-08T08:17:43.010Z,11.30
2023-05-08T08:20:12.272Z,11.30
2023-05-08T08:22:41.294Z,11.40
2023-05-08T08:25:11.153Z,11.40
2023-05-08T08:27:41.408Z,11.40
2023-05-08T08:30:17.515Z,11.50
2023-05-08T08:32:47.405Z,11.70
2023-05-08T08:35:17.138Z,11.80
2023-05-08T08:37:46.074Z,11.70
2023-05-08T08:40:15.016Z,11.70
2023-05-08T08:42:45.206Z,11.70
2023-05-08T08:45:14.254Z,11.70
2023-05-08T08:50:16.565Z,11.60
2023-05-08T08:52:54.617Z,11.70
2023-05-08T08:55:26.458Z,11.80
2023-05-08T08:58:09.426Z,12.00
2023-05-08T09:00:39.216Z,12.00
2023-05-08T09:03:08.706Z,12.20
2023-05-08T09:05:37.674Z,12.40
2023-05-08T09:08:07.312Z,12.70
2023-05-08T09:10:37.349Z,12.90
2023-05-08T09:13:07.382Z,13.20
2023-05-08T09:15:35.842Z,13.40
2023-05-08T09:18:04.534Z,13.70
2023-05-08T09:20:33.222Z,14.00
2023-05-08T09:23:03.684Z,14.10
2023-05-08T09:25:48.121Z,14.20
2023-05-08T09:28:22.149Z,14.40
2023-05-08T09:30:52.469Z,14.50
2023-05-08T09:33:20.960Z,14.70
2023-05-08T09:35:49.846Z,14.80
2023-05-08T09:38:38.297Z,14.80
2023-05-08T09:41:14.941Z,14.70
2023-05-08T09:43:45.980Z,14.50
2023-05-08T09:46:24.988Z,14.40
2023-05-08T09:48:54.786Z,14.20
2023-05-08T09:51:24.113Z,14.10
2023-05-08T09:53:54.269Z,14.10
2023-05-08T09:56:36.857Z,14.10
2023-05-08T09:59:24.242Z,14.20
2023-05-08T10:01:52.972Z,14.50
2023-05-08T10:04:33.471Z,14.70
2023-05-08T10:07:02.334Z,14.90
2023-05-08T10:09:42.681Z,14.80
2023-05-08T10:12:15.971Z,14.80
2023-05-08T10:14:46.978Z,14.50
2023-05-08T10:17:21.884Z,14.30
2023-05-08T10:19:54.749Z,14.10
2023-05-08T10:22:24.091Z,14.20
2023-05-08T10:24:57.165Z,14.20
2023-05-08T10:27:36.032Z,14.20
2023-05-08T10:30:06.998Z,14.00
2023-05-08T10:32:41.703Z,14.20
2023-05-08T10:35:11.909Z,14.40
2023-05-08T10:37:42.458Z,14.60
2023-05-08T10:40:12.496Z,14.70
2023-05-08T10:42:42.258Z,14.80
2023-05-08T10:45:13.475Z,14.90
2023-05-08T10:47:53.555Z,15.00
2023-05-08T10:50:40.405Z,15.10
2023-05-08T10:53:13.577Z,15.20
2023-05-08T10:55:43.805Z,15.20
2023-05-08T10:58:15.142Z,15.20
2023-05-08T11:01:18.469Z,15.10
2023-05-08T11:03:50.814Z,15.10
2023-05-08T11:06:40.098Z,14.90
2023-05-08T11:09:08.829Z,14.80
2023-05-08T11:11:40.404Z,14.80
2023-05-08T11:14:15.050Z,14.70
2023-05-08T11:17:11.987Z,14.70
2023-05-08T11:19:55.584Z,14.90
2023-05-08T11:22:29.328Z,15.10
2023-05-08T11:25:06.774Z,15.30
2023-05-08T11:28:07.630Z,15.40
2023-05-08T11:30:38.486Z,15.60
2023-05-08T11:33:33.025Z,15.60
2023-05-08T11:36:12.944Z,15.50
2023-05-08T11:38:45.541Z,15.20
2023-05-08T11:41:23.010Z,15.00
2023-05-08T11:44:21.970Z,14.90
2023-05-08T11:46:54.343Z,14.70
2023-05-08T11:49:28.992Z,14.70
2023-05-08T11:52:00.529Z,14.70
2023-05-08T11:54:32.498Z,14.70
2023-05-08T11:57:01.898Z,14.80
2023-05-08T11:59:30.420Z,14.90
2023-05-08T12:02:07.857Z,15.20
2023-05-08T12:04:47.161Z,15.40
2023-05-08T12:07:16.646Z,15.60
2023-05-08T12:09:45.180Z,15.80
2023-05-08T12:12:13.591Z,15.80
2023-05-08T12:14:42.003Z,15.80
2023-05-08T12:17:11.242Z,15.90
2023-05-08T12:19:39.748Z,15.80
2023-05-08T12:22:10.422Z,15.80
2023-05-08T12:24:39.982Z,15.80
2023-05-08T12:27:08.694Z,15.60
2023-05-08T12:29:40.405Z,15.60
2023-05-08T12:32:09.065Z,15.40
2023-05-08T12:34:38.101Z,15.20
2023-05-08T12:37:06.949Z,15.20
2023-05-08T12:39:40.541Z,15.00
2023-05-08T12:42:08.974Z,14.90
2023-05-08T12:44:37.567Z,14.80
2023-05-08T12:47:06.817Z,14.80
2023-05-08T12:49:35.336Z,14.90
2023-05-08T12:52:05.212Z,14.90
2023-05-08T12:54:39.400Z,15.00
2023-05-08T12:57:12.234Z,14.90
2023-05-08T12:59:41.231Z,15.10
2023-05-08T13:02:17.719Z,15.20
2023-05-08T13:04:46.958Z,15.40
2023-05-08T13:07:15.855Z,15.30
2023-05-08T13:10:09.408Z,15.40
2023-05-08T13:12:37.988Z,15.60
2023-05-08T13:15:07.044Z,15.80
2023-05-08T13:17:36.638Z,16.00
2023-05-08T13:20:06.381Z,16.20
2023-05-08T13:22:35.038Z,16.20
2023-05-08T13:25:05.299Z,16.30
2023-05-08T13:27:33.742Z,16.30
2023-05-08T13:30:02.198Z,16.30
2023-05-08T13:32:30.685Z,16.20
2023-05-08T13:35:00.985Z,16.00
2023-05-08T13:37:29.681Z,15.90
2023-05-08T13:39:58.065Z,15.80
2023-05-08T13:42:27.916Z,15.70
2023-05-08T13:44:56.364Z,15.60
2023-05-08T13:47:25.048Z,15.70
2023-05-08T13:49:53.631Z,15.80
2023-05-08T13:52:22.116Z,15.80
2023-05-08T13:54:50.584Z,16.00
2023-05-08T13:57:19.395Z,16.10
2023-05-08T13:59:49.342Z,16.20
2023-05-08T14:02:18.149Z,16.30
2023-05-08T14:04:46.653Z,16.30
2023-05-08T14:07:15.143Z,16.30
2023-05-08T14:09:43.575Z,16.20
2023-05-08T14:12:12.261Z,16.30
2023-05-08T14:14:40.699Z,16.20
2023-05-08T14:17:10.775Z,16.20
2023-05-08T14:19:39.299Z,16.10
2023-05-08T14:22:08.151Z,16.00
2023-05-08T14:24:36.540Z,16.00
2023-05-08T14:27:06.351Z,16.10
2023-05-08T14:29:34.917Z,16.20
2023-05-08T14:32:03.482Z,16.20
2023-05-08T14:34:33.853Z,16.20
2023-05-08T14:37:02.394Z,16.20
2023-05-08T14:39:30.910Z,15.90
2023-05-08T14:42:14.297Z,15.70
2023-05-08T14:44:48.754Z,15.40
2023-05-08T14:47:17.649Z,15.20
2023-05-08T14:49:47.631Z,15.00
2023-05-08T14:52:16.181Z,15.20
2023-05-08T14:54:45.185Z,15.50
2023-05-08T14:57:13.738Z,16.00
2023-05-08T14:59:52.376Z,16.30
2023-05-08T15:02:23.507Z,16.60
2023-05-08T15:04:53.477Z,17.10
2023-05-08T15:07:22.413Z,17.60
2023-05-08T15:09:50.892Z,18.10
2023-05-08T15:12:19.398Z,18.40
2023-05-08T15:14:47.790Z,18.80
2023-05-08T15:17:16.505Z,19.00
2023-05-08T15:19:45.895Z,19.20
2023-05-08T15:22:16.031Z,19.20
2023-05-08T15:24:44.669Z,19.00
2023-05-08T15:27:13.185Z,18.60
2023-05-08T15:29:41.663Z,18.10
2023-05-08T15:32:10.524Z,17.60
2023-05-08T15:34:40.617Z,17.00
2023-05-08T15:37:09.345Z,16.50
2023-05-08T15:39:39.956Z,16.20
2023-05-08T15:42:08.508Z,15.80
2023-05-08T15:44:54.044Z,15.50
2023-05-08T15:47:23.515Z,15.30
2023-05-08T15:49:52.335Z,15.00
2023-05-08T15:52:20.896Z,14.90
2023-05-08T15:54:51.280Z,14.90
2023-05-08T15:57:19.730Z,14.80
2023-05-08T15:59:48.298Z,14.80
2023-05-08T16:02:17.166Z,14.80
2023-05-08T16:04:45.581Z,14.80
2023-05-08T16:07:14.027Z,14.90
2023-05-08T16:09:42.807Z,14.90
2023-05-08T16:12:12.598Z,14.80
2023-05-08T16:14:41.249Z,14.90
2023-05-08T16:17:09.652Z,14.80
2023-05-08T16:19:41.202Z,14.60
2023-05-08T16:22:09.559Z,14.60
2023-05-08T16:24:37.918Z,14.50
2023-05-08T16:27:06.285Z,14.40
2023-05-08T16:29:36.254Z,14.20
2023-05-08T16:32:04.734Z,14.10
2023-05-08T16:34:35.389Z,14.00
2023-05-08T16:37:03.741Z,14.00
2023-05-08T16:39:32.132Z,13.90
2023-05-08T16:42:00.666Z,13.80
2023-05-08T16:44:29.092Z,13.70
2023-05-08T16:46:58.867Z,13.70
2023-05-08T16:49:27.227Z,13.70
2023-05-08T16:51:55.601Z,13.70
2023-05-08T16:54:24.188Z,13.60
2023-05-08T16:56:54.894Z,13.50
2023-05-08T16:59:23.382Z,13.50
2023-05-08T17:01:51.763Z,13.30
2023-05-08T17:04:21.605Z,13.30
2023-05-08T17:06:49.960Z,13.20
2023-05-08T17:09:18.810Z,13.10
2023-05-08T17:11:47.384Z,13.10
2023-05-08T17:14:15.778Z,13.00
2023-05-08T17:16:44.289Z,13.00
2023-05-08T17:19:12.686Z,12.90
2023-05-08T17:21:42.472Z,12.90
2023-05-08T17:24:10.877Z,12.80
2023-05-08T17:26:39.354Z,12.80
2023-05-08T17:29:07.813Z,12.70
2023-05-08T17:31:36.614Z,12.60
2023-05-08T17:34:06.595Z,12.50
2023-05-08T17:36:35.192Z,12.40
2023-05-08T17:39:05.493Z,12.30
2023-05-08T17:41:34.281Z,12.20
2023-05-08T17:44:03.198Z,12.10
2023-05-08T17:46:31.721Z,12.00
2023-05-08T17:49:01.665Z,12.00
2023-05-08T17:51:30.387Z,11.80
2023-05-08T17:53:59.022Z,11.70
2023-05-08T17:56:30.531Z,11.60
2023-05-08T17:59:00.267Z,11.60
2023-05-08T18:01:29.889Z,11.40
2023-05-08T18:03:58.448Z,11.30
2023-05-08T18:06:27.240Z,11.20
2023-05-08T18:08:55.832Z,11.00
2023-05-08T18:11:25.695Z,10.90
2023-05-08T18:13:57.736Z,10.80
2023-05-08T18:16:26.612Z,10.70
2023-05-08T18:18:55.242Z,10.60
2023-05-08T18:21:24.703Z,10.50
2023-05-08T18:23:53.271Z,10.30
2023-05-08T18:26:21.954Z,10.20
2023-05-08T18:28:50.784Z,10.10
2023-05-08T18:31:21.154Z,10.00
2023-05-08T18:33:49.827Z,9.80
2023-05-08T18:36:18.434Z,9.70
2023-05-08T18:38:47.125Z,9.60
2023-05-08T18:41:15.670Z,9.50
2023-05-08T18:43:45.178Z,9.40
2023-05-08T18:46:14.730Z,9.30
2023-05-08T18:48:46.694Z,9.10
2023-05-08T18:51:15.540Z,9.00
2023-05-08T18:53:44.091Z,8.90
2023-05-08T18:56:13.141Z,8.80
2023-05-08T18:58:41.797Z,8.70
2023-05-08T19:01:10.526Z,8.50
2023-05-08T19:03:39.517Z,8.40
2023-05-08T19:06:09.530Z,8.30
2023-05-08T19:08:38.138Z,8.30
2023-05-08T19:11:06.764Z,8.20
2023-05-08T19:13:35.566Z,8.10
2023-05-08T19:16:04.485Z,8.10
2023-05-08T19:18:33.553Z,8.00
2023-05-08T19:21:03.183Z,7.90
2023-05-08T19:23:33.181Z,7.80
2023-05-08T19:26:01.861Z,7.70
2023-05-08T19:28:30.847Z,7.70
2023-05-08T19:30:59.846Z,7.80
2023-05-08T19:33:28.604Z,7.50
2023-05-08T19:35:57.264Z,7.40
2023-05-08T19:38:26.227Z,7.30
2023-05-08T19:40:57.862Z,7.30
2023-05-08T19:43:29.933Z,7.20
2023-05-08T19:45:59.034Z,7.10
2023-05-08T19:48:27.846Z,7.00
2023-05-08T19:50:56.848Z,7.00
2023-05-08T19:53:26.138Z,6.90
2023-05-08T19:55:56.309Z,6.80
2023-05-08T19:58:25.006Z,6.70
2023-05-08T20:00:53.553Z,6.60
2023-05-08T20:03:22.389Z,6.50
2023-05-08T20:05:52.304Z,6.50
2023-05-08T20:08:20.900Z,6.40
2023-05-08T20:10:50.091Z,6.30
2023-05-08T20:13:20.288Z,6.20
2023-05-08T20:15:48.969Z,6.20
2023-05-08T20:18:18.109Z,6.10
2023-05-08T20:20:46.888Z,6.10
2023-05-08T20:23:15.456Z,6.00
2023-05-08T20:25:46.581Z,5.90
2023-05-08T20:28:15.459Z,5.90
2023-05-08T20:30:45.536Z,5.80
2023-05-08T20:33:14.197Z,5.80
2023-05-08T20:35:42.793Z,5.70
2023-05-08T20:38:11.544Z,5.70
2023-05-08T20:40:40.505Z,5.60
2023-05-08T20:43:09.725Z,5.60
2023-05-08T20:45:38.840Z,5.50
2023-05-08T20:48:08.976Z,5.40
2023-05-08T20:50:37.584Z,5.40
2023-05-08T20:53:06.117Z,5.30
2023-05-08T20:55:34.851Z,5.30
2023-05-08T20:58:04.348Z,5.20
2023-05-08T21:00:34.528Z,5.10
2023-05-08T21:03:03.339Z,5.00
2023-05-08T21:05:33.785Z,5.00
2023-05-08T21:08:05.228Z,5.00
2023-05-08T21:10:34.250Z,4.90
2023-05-08T21:13:02.980Z,4.90
2023-05-08T21:15:32.240Z,4.80
2023-05-08T21:18:00.880Z,4.80
2023-05-08T21:20:29.956Z,4.70
2023-05-08T21:22:59.966Z,4.70
2023-05-08T21:25:28.883Z,4.70
2023-05-08T21:27:57.590Z,4.60
2023-05-08T21:30:26.154Z,4.60
2023-05-08T21:32:54.767Z,4.50
2023-05-08T21:35:23.675Z,4.50
2023-05-08T21:37:54.637Z,4.50
2023-05-08T21:40:25.296Z,4.50
2023-05-08T21:42:54.056Z,4.40
2023-05-08T21:45:22.713Z,4.40
2023-05-08T21:47:51.430Z,4.30
2023-05-08T21:50:20.147Z,4.30
2023-05-08T21:52:48.923Z,4.30
2023-05-08T21:55:17.499Z,4.20
2023-05-08T21:57:47.488Z,4.10
2023-05-08T22:00:18.018Z,4.10
2023-05-08T22:02:46.589Z,4.10
2023-05-08T22:05:15.451Z,4.00
2023-05-08T22:07:44.250Z,3.90
2023-05-08T22:10:14.054Z,3.90
2023-05-08T22:12:43.870Z,3.90
2023-05-08T22:15:26.089Z,3.90
2023-05-08T22:17:57.531Z,3.90
2023-05-08T22:20:26.276Z,3.80
2023-05-08T22:22:54.932Z,3.70
2023-05-08T22:25:23.464Z,3.70
2023-05-08T22:27:51.987Z,3.60
2023-05-08T22:30:22.273Z,3.60
2023-05-08T22:32:56.080Z,3.60
2023-05-08T22:35:25.997Z,3.60
2023-05-08T22:37:55.100Z,3.50
2023-05-08T22:40:24.304Z,3.50
2023-05-08T22:42:54.284Z,3.40
2023-05-08T22:45:24.838Z,3.40
2023-05-08T22:47:53.503Z,3.30
2023-05-08T22:50:22.393Z,3.30
2023-05-08T22:52:51.433Z,3.30
2023-05-08T22:55:19.973Z,3.20
2023-05-08T22:57:48.611Z,3.20
2023-05-08T23:00:17.675Z,3.10
2023-05-08T23:02:47.725Z,3.10
2023-05-08T23:05:16.675Z,3.10
2023-05-08T23:07:45.483Z,3.10
2023-05-08T23:10:14.447Z,3.00
2023-05-08T23:12:43.111Z,2.90
2023-05-08T23:15:13.308Z,2.90
2023-05-08T23:17:42.068Z,3.00
2023-05-08T23:20:13.071Z,3.00
2023-05-08T23:22:41.711Z,2.90
2023-05-08T23:25:12.444Z,2.90
2023-05-08T23:27:41.173Z,2.80
2023-05-08T23:30:13.337Z,2.80
2023-05-08T23:32:42.203Z,2.80
2023-05-08T23:35:12.732Z,2.80
2023-05-08T23:37:41.522Z,2.80
2023-05-08T23:40:11.395Z,2.70
2023-05-08T23:42:40.366Z,2.70
2023-05-08T23:45:11.267Z,2.60
2023-05-08T23:47:39.901Z,2.60
2023-05-08T23:50:09.408Z,2.50
2023-05-08T23:52:39.446Z,2.50
2023-05-08T23:55:09.567Z,2.40
2023-05-08T23:57:38.137Z,2.40
